Latest Weather Observations for Rottnest Island

IDW60801

Issued at 11:03 pm WST Thursday 17 August 2017 (issued every 30 minutes, with the page automatically refreshed every 10 minutes)

About weather observations | Map of weather stations | Latest weather observations for WA | Other Formats
Station Details ID: 009193 Name: ROTTNEST ISLAND Lat: -32.01 Lon: 115.50 Height: 43.1 m
Data from the previous 72 hours. | See also: Recent months at Rottnest Island
Date/Time
WST
Temp
°C
App
Temp
°C
Dew
Point
°C
Rel
Hum
%
Delta-T
°C
Wind Press
QNH
hPa
Press
MSL
hPa
Rain since
9am
mm
Dir  Spd
km/h
Gust
km/h
Spd
kts
Gust
kts
17/11:00pm 14.5 8.4 10.3 76 2.2 N 33 43 18 23 1016.9 1016.8 0.2
17/10:30pm 14.9 8.8 10.3 74 2.4 N 33 44 18 24 1017.1 1017.1 0.2
17/10:26pm 14.9 8.4 10.3 74 2.4 N 35 44 19 24 1017.0 1017.0 0.2
17/10:00pm 15.6 9.5 8.1 61 3.8 NNW 30 37 16 20 1017.4 1017.4 0.2
17/09:33pm 14.9 9.4 9.3 69 2.9 NW 28 46 15 25 1017.4 1017.4 0.2
17/09:30pm 14.7 8.5 9.5 71 2.7 NW 32 46 17 25 1017.5 1017.5 0.2
17/09:00pm 14.6 9.1 10.6 77 2.1 N 30 43 16 23 1017.5 1017.5 0.2
17/08:30pm 15.7 9.0 8.0 60 3.9 NNW 33 43 18 23 1017.3 1017.3 0.2
17/08:00pm 15.6 9.3 8.8 64 3.5 NNW 32 41 17 22 1017.3 1017.3 0.2
17/07:30pm 15.6 8.2 6.9 56 4.3 NNW 35 43 19 23 1017.2 1017.2 0.2
17/07:00pm 15.5 8.5 6.8 56 4.3 NNW 33 43 18 23 1017.0 1017.0 0.2
17/06:30pm 15.4 8.8 7.9 61 3.8 NW 32 39 17 21 1017.2 1017.2 0.2
17/06:00pm 15.7 8.2 6.4 54 4.5 NNW 35 46 19 25 1017.2 1017.2 0.2
17/05:30pm 15.7 8.6 6.2 53 4.6 NNW 33 43 18 23 1016.9 1016.8 0.2
17/05:00pm 15.7 8.3 6.7 55 4.4 NNW 35 48 19 26 1016.8 1016.7 0.2
17/04:30pm 15.8 8.4 6.8 55 4.4 NNW 35 46 19 25 1016.8 1016.7 0.2
17/04:00pm 15.9 8.1 6.6 54 4.5 NNW 37 44 20 24 1017.2 1017.2 0.2
17/03:30pm 16.0 8.5 6.4 53 4.7 NNW 35 44 19 24 1017.4 1017.4 0.2
17/03:00pm 16.8 9.9 7.2 53 4.8 NNW 33 44 18 24 1017.7 1017.7 0.2
17/02:30pm 16.6 9.7 6.4 51 5.0 NNW 32 39 17 21 1017.8 1017.8 0.2
17/02:00pm 15.7 9.3 7.0 56 4.3 NNW 30 37 16 20 1018.0 1018.0 0.2
17/01:30pm 15.6 8.8 6.9 56 4.3 NNW 32 39 17 21 1018.2 1018.2 0.2
17/01:00pm 17.0 10.5 6.5 50 5.2 NNW 30 35 16 19 1018.7 1018.7 0.2
17/12:30pm 16.6 9.6 5.9 49 5.2 NNW 32 37 17 20 1018.9 1018.9 0.2
17/12:00pm 17.0 11.2 7.9 55 4.6 NNW 28 33 15 18 1019.4 1019.4 0.2
17/11:30am 15.8 10.4 8.1 60 3.9 NNW 26 33 14 18 1019.8 1019.8 0.2
17/11:00am 12.5 8.0 9.9 84 1.3 N 24 32 13 17 1020.3 1020.3 0.2
17/10:47am 12.9 7.4 9.2 78 1.9 N 28 39 15 21 1020.3 1020.3 0.0
17/10:30am 14.9 11.3 8.2 64 3.4 NW 17 20 9 11 1020.4 1020.4 0.0
17/10:00am 13.3 7.1 8.0 70 2.6 NNW 30 39 16 21 1020.4 1020.4 0.0
17/09:46am 12.9 7.1 8.0 72 2.4 NNW 28 41 15 22 1020.3 1020.3 0.0
17/09:30am 12.8 9.9 9.8 82 1.5 NE 15 20 8 11 1020.6 1020.6 0.0
17/09:00am 12.3 9.5 9.9 85 1.2 NE 15 20 8 11 1020.6 1020.6 1.6
17/08:30am 11.7 7.3 9.1 84 1.3 NE 22 30 12 16 1020.4 1020.4 1.6
17/08:00am 12.0 9.3 9.0 82 1.5 NNW 13 17 7 9 1020.2 1020.2 1.6
17/07:30am 11.3 7.8 8.7 84 1.3 NW 17 20 9 11 1020.0 1020.0 1.4
17/07:00am 13.1 8.6 7.1 67 2.9 NW 20 26 11 14 1019.6 1019.6 0.2
17/06:30am 12.9 8.2 7.6 70 2.6 WNW 22 30 12 16 1019.6 1019.6 0.2
17/06:00am 12.4 8.4 6.5 67 2.8 W 17 20 9 11 1019.4 1019.4 0.2
17/05:30am 11.9 10.1 7.0 72 2.4 SSW 6 15 3 8 1019.4 1019.4 0.2
17/05:00am 11.5 6.5 8.0 79 1.7 SW 24 33 13 18 1019.4 1019.4 0.2
17/04:30am 12.6 8.3 5.3 61 3.4 WSW 17 24 9 13 1019.1 1019.1 0.0
17/04:00am 12.5 8.7 5.7 63 3.2 WSW 15 20 8 11 1019.2 1019.2 0.0
17/03:30am 12.8 7.0 6.2 64 3.1 WNW 26 35 14 19 1019.2 1019.2 0.0
17/03:00am 12.6 8.1 4.3 57 3.8 WSW 17 20 9 11 1019.4 1019.4 0.0
17/02:30am 12.9 8.9 5.1 59 3.6 W 15 20 8 11 1019.4 1019.4 0.0
17/02:00am 12.2 7.7 4.2 58 3.6 W 17 22 9 12 1019.6 1019.6 0.0
17/01:30am 12.4 7.8 3.9 56 3.8 WSW 17 24 9 13 1019.9 1019.9 0.0
17/01:00am 12.5 8.0 4.2 57 3.8 WSW 17 20 9 11 1020.0 1020.0 0.0
17/12:30am 12.7 7.6 4.2 56 3.9 SW 20 28 11 15 1020.2 1020.2 0.0
17/12:00am 12.9 7.3 3.3 52 4.3 SW 22 30 12 16 1020.2 1020.2 0.0
 
Date/Time
WST
Temp
°C
App
Temp
°C
Dew
Point
°C
Rel
Hum
%
Delta-T
°C
Wind Press
QNH
hPa
Press
MSL
hPa
Rain since
9am
mm
Dir  Spd
km/h
Gust
km/h
Spd
kts
Gust
kts
16/11:30pm 13.1 6.5 4.0 54 4.1 SW 28 35 15 19 1020.3 1020.3 0.0
16/11:00pm 13.5 7.1 5.4 58 3.8 SW 28 37 15 20 1020.4 1020.4 0.0
16/10:30pm 13.1 7.0 4.8 57 3.8 SW 26 33 14 18 1020.7 1020.7 0.0
16/10:00pm 12.7 7.1 5.4 61 3.4 SW 24 33 13 18 1020.8 1020.8 0.0
16/09:30pm 13.3 6.8 4.5 55 4.0 SW 28 33 15 18 1020.9 1020.9 0.0
16/09:00pm 13.2 7.9 4.9 57 3.8 SW 22 30 12 16 1020.9 1020.9 0.0
16/08:30pm 13.3 6.2 1.6 45 5.0 SW 28 39 15 21 1020.8 1020.8 0.0
16/08:00pm 13.7 6.1 3.8 51 4.5 SW 33 41 18 22 1020.7 1020.7 0.0
16/07:30pm 13.4 5.8 3.8 52 4.3 SW 33 43 18 23 1020.6 1020.6 0.0
16/07:00pm 13.5 6.4 3.6 51 4.5 SW 30 39 16 21 1020.3 1020.3 0.0
16/06:30pm 13.4 5.7 2.3 47 4.9 SW 32 44 17 24 1020.0 1020.0 0.0
16/06:00pm 13.6 5.4 4.7 55 4.1 SW 37 48 20 26 1019.6 1019.6 0.0
16/05:30pm 13.8 5.9 4.4 53 4.3 SW 35 46 19 25 1019.4 1019.4 0.0
16/05:00pm 14.1 6.5 4.1 51 4.6 SW 33 43 18 23 1019.1 1019.1 0.0
16/04:30pm 14.5 7.1 5.0 53 4.5 SW 33 46 18 25 1019.0 1019.0 0.0
16/04:00pm 14.6 6.4 4.6 51 4.6 SW 37 44 20 24 1019.0 1019.0 0.0
16/03:30pm 14.4 4.7 2.6 45 5.3 SW 43 52 23 28 1018.8 1018.8 0.0
16/03:00pm 14.6 5.8 3.4 47 5.1 SW 39 50 21 27 1018.8 1018.8 0.0
16/02:30pm 15.3 5.9 4.7 49 5.0 SW 43 54 23 29 1018.5 1018.5 0.0
16/02:00pm 15.7 6.8 5.0 49 5.1 SW 41 52 22 28 1018.4 1018.4 0.0
16/01:36pm 15.3 6.8 5.0 50 4.9 SW 39 57 21 31 1018.4 1018.4 0.0
16/01:30pm 16.3 8.4 6.4 52 4.8 SW 37 48 20 26 1018.6 1018.6 0.0
16/01:00pm 15.5 6.4 6.0 53 4.6 SW 43 52 23 28 1018.7 1018.7 0.0
16/12:30pm 14.9 5.6 5.1 52 4.6 SW 43 54 23 29 1018.7 1018.7 0.0
16/12:00pm 14.9 6.6 6.2 56 4.2 SW 39 54 21 29 1019.0 1019.0 0.0
16/11:30am 12.9 5.6 8.6 75 2.2 SW 37 54 20 29 1019.4 1019.4 0.0
16/11:13am 13.3 4.6 7.5 68 2.8 SW 43 69 23 37 1019.1 1019.1 0.0
16/11:00am 14.5 6.2 6.1 57 4.0 SW 39 50 21 27 1018.9 1018.9 0.0
16/10:30am 15.1 6.3 5.6 53 4.5 SW 41 50 22 27 1018.8 1018.8 0.0
16/10:00am 14.4 6.5 6.0 57 4.0 SW 37 50 20 27 1018.8 1018.8 0.0
16/09:30am 15.0 7.5 6.3 56 4.2 SW 35 44 19 24 1018.8 1018.8 0.0
16/09:00am 13.8 5.3 5.2 56 4.0 SW 39 50 21 27 1018.4 1018.4 4.6
16/08:30am 14.2 4.7 3.9 50 4.7 SW 43 54 23 29 1018.1 1018.1 4.6
16/08:00am 13.9 4.9 6.3 60 3.6 SW 43 54 23 29 1017.6 1017.6 4.6
16/07:30am 13.6 5.6 5.5 58 3.8 SW 37 46 20 25 1017.3 1017.3 4.6
16/07:00am 13.4 5.1 6.3 62 3.4 SW 39 50 21 27 1016.9 1016.8 4.6
16/06:51am 13.1 4.2 6.9 66 3.0 SW 43 61 23 33 1016.8 1016.7 4.6
16/06:30am 13.1 2.9 6.9 66 3.0 SW 50 65 27 35 1016.4 1016.3 4.6
16/06:00am 13.0 2.6 7.7 70 2.6 SSW 52 67 28 36 1016.2 1016.1 4.6
16/05:36am 13.3 4.5 9.4 77 2.0 SW 46 67 25 36 1015.6 1015.5 4.6
16/05:30am 13.2 4.7 9.1 76 2.1 SW 44 56 24 30 1015.8 1015.7 4.6
16/05:00am 12.4 5.1 10.3 87 1.1 WSW 39 50 21 27 1015.7 1015.6 4.4
16/04:30am 13.1 6.3 9.4 78 1.9 WSW 35 44 19 24 1015.6 1015.5 3.0
16/04:00am 12.9 6.3 9.9 82 1.5 WSW 35 54 19 29 1015.5 1015.4 3.0
16/03:41am 13.8 7.1 9.5 75 2.2 WSW 35 57 19 31 1015.6 1015.5 3.0
16/03:30am 14.0 8.4 8.6 70 2.7 W 28 39 15 21 1015.6 1015.5 3.0
16/03:12am 14.2 7.9 9.6 74 2.4 W 33 54 18 29 1015.6 1015.5 3.0
16/03:00am 13.9 7.9 8.5 70 2.7 W 30 43 16 23 1015.8 1015.7 3.0
16/02:46am 13.8 8.4 9.6 76 2.2 W 28 46 15 25 1015.8 1015.7 3.0
16/02:30am 13.2 6.9 8.9 75 2.2 W 32 48 17 26 1015.9 1015.8 3.0
16/02:00am 13.7 7.8 9.2 74 2.3 W 30 43 16 23 1016.2 1016.1 3.0
16/01:30am 13.4 9.1 9.3 76 2.1 W 22 35 12 19 1016.2 1016.1 3.0
16/01:00am 12.8 7.7 9.3 79 1.8 WSW 26 35 14 19 1016.6 1016.5 3.0
16/12:30am 13.6 7.7 8.9 73 2.4 WSW 30 41 16 22 1016.6 1016.5 2.6
16/12:00am 12.9 7.0 9.2 78 1.9 WSW 30 44 16 24 1016.8 1016.7 2.6
 
Date/Time
WST
Temp
°C
App
Temp
°C
Dew
Point
°C
Rel
Hum
%
Delta-T
°C
Wind Press
QNH
hPa
Press
MSL
hPa
Rain since
9am
mm
Dir  Spd
km/h
Gust
km/h
Spd
kts
Gust
kts
15/11:30pm 13.5 7.2 8.8 73 2.4 WSW 32 41 17 22 1016.9 1016.8 2.6
15/11:00pm 13.4 8.0 9.5 77 2.0 W 28 39 15 21 1017.1 1017.1 2.6
15/10:30pm 12.8 8.5 9.4 80 1.7 W 22 35 12 19 1017.3 1017.3 2.6
15/10:00pm 12.2 5.7 10.3 88 1.0 WSW 35 54 19 29 1017.7 1017.7 2.4
15/09:54pm 13.1 7.8 9.7 80 1.7 WSW 28 54 15 29 1017.6 1017.6 2.0
15/09:30pm 13.5 8.2 9.7 78 2.0 WSW 28 37 15 20 1017.9 1017.9 2.0
15/09:00pm 13.1 7.5 8.8 75 2.2 WSW 28 41 15 22 1018.0 1018.0 2.0
15/08:30pm 13.1 6.9 9.4 78 1.9 WSW 32 43 17 23 1018.1 1018.1 2.0
15/08:00pm 13.1 7.4 9.7 80 1.7 WSW 30 41 16 22 1018.2 1018.2 1.8
15/07:30pm 12.8 7.6 10.2 84 1.3 WSW 28 37 15 20 1018.1 1018.1 1.8
15/07:00pm 12.2 6.2 10.1 87 1.1 WSW 32 56 17 30 1017.9 1017.9 1.4
15/06:59pm 12.5 6.8 9.9 84 1.3 WSW 30 48 16 26 1018.0 1018.0 0.6
15/06:30pm 12.2 6.0 9.2 82 1.5 WSW 32 43 17 23 1017.9 1017.9 0.0
15/06:13pm 13.4 7.9 9.3 76 2.1 WSW 28 50 15 27 1017.6 1017.6 0.0
15/06:00pm 13.1 6.7 9.5 79 1.8 WSW 33 46 18 25 1017.6 1017.6 0.0
15/05:43pm 13.6 7.8 9.3 75 2.2 WSW 30 48 16 26 1017.7 1017.7 0.0
15/05:30pm 13.6 6.8 9.3 75 2.2 WSW 35 46 19 25 1017.5 1017.5 0.0
15/05:00pm 14.6 8.1 6.7 59 3.8 WSW 30 39 16 21 1017.3 1017.3 0.0
15/04:30pm 15.2 10.0 7.3 59 3.9 WSW 24 37 13 20 1017.2 1017.2 0.0
15/04:00pm 15.1 8.2 7.2 59 3.9 WSW 33 44 18 24 1017.1 1017.1 0.0
15/03:30pm 15.1 8.2 7.4 60 3.8 WSW 33 46 18 25 1016.9 1016.8 0.0
15/03:13pm 15.5 9.2 7.5 59 4.0 WSW 30 50 16 27 1016.8 1016.7 0.0
15/03:00pm 14.6 8.3 7.2 61 3.6 WSW 30 41 16 22 1016.9 1016.8 0.0
15/02:30pm 15.7 7.9 8.2 61 3.8 SW 39 52 21 28 1016.7 1016.6 0.0
15/02:00pm 15.4 7.0 5.6 52 4.7 WSW 39 48 21 26 1016.5 1016.4 0.0
15/01:30pm 15.5 8.0 6.2 54 4.5 WSW 35 46 19 25 1016.5 1016.4 0.0
15/01:00pm 15.5 7.1 7.3 58 4.1 WSW 41 52 22 28 1016.6 1016.5 0.0
15/12:30pm 16.3 8.4 6.2 51 4.9 WSW 37 50 20 27 1016.6 1016.5 0.0
15/12:00pm 16.2 7.6 6.6 53 4.7 WSW 41 52 22 28 1016.8 1016.7 0.0
15/11:44am 15.8 9.0 7.8 59 4.0 WSW 33 52 18 28 1016.9 1016.8 0.0
15/11:30am 16.0 8.0 7.5 57 4.2 WSW 39 50 21 27 1016.8 1016.7 0.0
15/11:00am 14.6 5.8 7.9 64 3.3 WSW 44 65 24 35 1016.8 1016.7 0.0
15/10:59am 15.1 6.5 8.3 64 3.4 WSW 43 65 23 35 1016.8 1016.7 0.0
15/10:30am 16.0 8.1 7.7 58 4.2 WSW 39 50 21 27 1016.8 1016.7 0.0
15/10:00am 14.6 7.6 8.5 67 3.1 SW 35 50 19 27 1016.7 1016.6 0.0
15/09:44am 14.8 6.3 6.9 59 3.9 WSW 41 69 22 37 1016.3 1016.2 0.0
15/09:30am 15.1 7.0 6.9 58 4.0 SW 39 54 21 29 1016.3 1016.2 0.0
15/09:00am 15.1 6.1 7.4 60 3.8 SW 44 56 24 30 1015.9 1015.8 2.4
15/08:41am 15.0 6.3 7.5 61 3.7 WSW 43 61 23 33 1015.5 1015.4 2.4
15/08:30am 14.4 6.3 7.0 61 3.6 WSW 39 50 21 27 1015.4 1015.3 2.4
15/08:11am 13.4 4.7 7.8 69 2.8 WSW 43 61 23 33 1015.1 1015.0 2.4
15/08:00am 14.0 4.3 5.9 58 3.9 WSW 46 59 25 32 1014.7 1014.6 2.4
15/07:48am 12.8 4.1 7.5 70 2.6 WSW 43 61 23 33 1014.6 1014.5 2.4
15/07:30am 13.8 4.7 5.7 58 3.8 WSW 43 56 23 30 1014.1 1014.0 2.4
15/07:00am 13.6 4.4 6.2 61 3.5 WSW 44 61 24 33 1013.7 1013.6 2.4
15/06:42am 13.0 5.5 6.4 64 3.2 WSW 35 54 19 29 1013.4 1013.3 2.4
15/06:30am 11.4 5.0 6.9 74 2.1 W 30 39 16 21 1013.4 1013.3 2.4
15/06:14am 12.9 2.9 6.0 63 3.3 WSW 48 74 26 40 1013.0 1012.9 2.4
15/06:01am 13.5 5.5 5.9 60 3.6 WSW 37 56 20 30 1012.9 1012.8 2.4
15/06:00am 13.3 5.5 6.6 64 3.2 WSW 37 54 20 29 1012.9 1012.8 2.4
15/05:30am 13.7 4.4 5.8 59 3.7 WSW 44 67 24 36 1012.3 1012.2 2.4
15/05:19am 13.7 3.9 5.3 57 3.9 WSW 46 67 25 36 1012.1 1012.0 2.4
15/05:00am 13.6 3.8 5.5 58 3.8 WSW 46 61 25 33 1011.8 1011.7 2.4
15/04:45am 13.8 5.3 6.9 63 3.4 W 41 59 22 32 1011.5 1011.4 2.4
15/04:30am 13.7 4.7 7.2 65 3.2 WSW 44 61 24 33 1011.4 1011.3 2.4
15/04:00am 13.3 4.8 6.9 65 3.1 WSW 41 61 22 33 1011.0 1010.9 2.4
15/03:32am 12.6 3.5 6.6 67 2.9 WSW 44 80 24 43 1010.8 1010.7 2.4
15/03:30am 12.8 3.9 6.8 67 2.9 WSW 43 61 23 33 1010.9 1010.8 2.4
15/03:00am 13.7 4.4 7.5 66 3.1 W 46 67 25 36 1010.7 1010.6 2.2
15/02:34am 13.7 4.9 7.2 65 3.2 W 43 65 23 35 1010.5 1010.4 2.2
15/02:30am 13.4 5.0 7.2 66 3.0 W 41 56 22 30 1010.5 1010.4 2.2
15/02:00am 13.4 4.6 8.0 70 2.7 W 44 67 24 36 1010.4 1010.3 2.2
15/01:30am 12.9 4.4 9.4 79 1.8 W 44 69 24 37 1010.1 1010.0 2.2
15/01:00am 12.5 2.8 7.6 72 2.4 W 48 78 26 42 1010.1 1010.0 0.8
15/12:30am 15.0 5.9 6.8 58 4.0 W 44 65 24 35 1009.8 1009.7 0.8
15/12:01am 14.8 5.6 7.8 63 3.5 W 46 65 25 35 1010.0 1009.9 0.8
15/12:00am 14.8 5.1 7.4 61 3.7 W 48 65 26 35 1009.9 1009.8 0.8
 
Date/Time
WST
Temp
°C
App
Temp
°C
Dew
Point
°C
Rel
Hum
%
Delta-T
°C
Wind Press
QNH
hPa
Press
MSL
hPa
Rain since
9am
mm
Dir  Spd
km/h
Gust
km/h
Spd
kts
Gust
kts
14/11:30pm 14.5 6.0 8.7 68 2.9 W 43 61 23 33 1010.0 1009.9 0.8

Other Formats:

Comma delimited format used in spreadsheet applications
http://www.bom.gov.au/fwo/IDW60801/IDW60801.94602.axf

JavaScript Object Notation format (JSON) in row-major order
http://www.bom.gov.au/fwo/IDW60801/IDW60801.94602.json